Moville, IA (51039)

4:03 AM CDT on June 03, 2015 (GMT -0500)
Golf Course Addition | | Change Station
CLOSE
Current Station
Personal Weather Station
Location: Moville, IA
Elevation: 1188 ft
Nearby Weather Stations

Elev 1188 ft 42.49 °N, 96.06 °W | Updated 9 seconds ago

Overcast
Overcast
65.3 °F
Feels Like 65.3 °F
N
5.6
Wind Variable Wind from WSW
Gusts 7.4 mph

Today
High -- | Low -- °F
--% Chance of Precip.
Yesterday
High -- | Low -- °F
Precip. -- in
5:48 AM 8:56 PM
Waxing Gibbous, 99% visible
Pressure 29.87 in
Visibility 4.0 miles
Clouds Mostly Cloudy 1700 ft
Mostly Cloudy 2200 ft
Overcast 3500 ft
Dew Point 62 °F
Humidity 88%
Rainfall 0.00 in
Snow Depth Not available.
UV 0.0 out of 12
Pollen 8.00 out of 12
Air Quality Not available.
Flu Activity No Activity
METAR KSUX 030852Z 21006KT 4SM +TSRA BKN017 BKN022 OVC035 18/15 A2988 RMK AO2 PK WND 26028/0832 LTG DSNT ALQDS RAB34 TSB47 SLP113 P0005 60005 T01780150 53003

More Conditions Fewer Conditions

Pressure 29.87 in
Visibility 4.0 miles
Clouds Mostly Cloudy 1700 ft
Mostly Cloudy 2200 ft
Overcast 3500 ft
Dew Point 62 °F
Humidity 88%
Rainfall 0.00 in
Snow Depth Not available.
UV 0.0 out of 12
Pollen 8.00 out of 12
Air Quality Not available.
Flu Activity No Activity
METAR KSUX 030852Z 21006KT 4SM +TSRA BKN017 BKN022 OVC035 18/15 A2988 RMK AO2 PK WND 26028/0832 LTG DSNT ALQDS RAB34 TSB47 SLP113 P0005 60005 T01780150 53003

More Conditions Fewer Conditions

10-Day Weather Forecast

×

Almanac

Astronomy

Jun. 03, 2015 Rise Set
Actual Time
Civil Twilight
Nautical Twilight
Astronomical Twilight
Moon
Length of Visible Light
Length of Day
Tomorrow will be .
, % of the Moon is Illuminated

Today's Extremes

State Highs State Lows

Community

WunderPhotos

Upload Photos

1,826,194 photos uploaded!

WunderBlogs® & News

Nearby

Air Quality

  Air Quality AQ Index Pollutant
Not available.

Snow Depth

Station Depth Elevation

Earthquake Activity

City Distance Mag. Time & Date
Minimum magnitude displayed is 2.5.

Coastal Water Temperatures

Place Temperature

Stations

Nearby Weather Stations

Station Location Temp. Windchill Dew Point Humidity Wind Precip. Elev Updated Type